Gielas, Sweden

9:29 PM CEST on August 28, 2015 (GMT +0200)
Hemavan | | Change Station
CLOSE
Current Station
Airport
Location: Hemavan Airport,
Elevation: 1519 ft
Nearby Weather Stations

Elev 1519 ft 65.81 °N, 15.08 °E | Updated 9 minutes ago

Drizzle
Drizzle
46 °F
Feels Like 46 °F
N
0
Wind Variable Wind from North

Today
High -- | Low -- °F
--% Chance of Precip.
Yesterday
High -- | Low -- °F
Precip. -- in
5:23 AM 8:36 PM
Waxing Gibbous, 99% visible
Pressure 29.47 in
Visibility 6.2 miles
Clouds Few 1000 ft
Mostly Cloudy 3500 ft
Overcast 4500 ft
Dew Point 45 °F
Humidity 93%
Rainfall 0.00 in
Snow Depth Not available.
UV 0 out of 12
Pollen Not available.
Air Quality Not available.
Flu Activity Not available.
METAR ESUT 281920Z AUTO 00000KT 9999 DZ FEW010/// BKN035/// OVC045/// 08/07 Q0998
Pressure 29.47 in
Visibility 6.2 miles
Clouds Few 1000 ft
Mostly Cloudy 3500 ft
Overcast 4500 ft
Dew Point 45 °F
Humidity 93%
Rainfall 0.00 in
Snow Depth Not available.
UV 0 out of 12
Pollen Not available.
Air Quality Not available.
Flu Activity Not available.
METAR ESUT 281920Z AUTO 00000KT 9999 DZ FEW010/// BKN035/// OVC045/// 08/07 Q0998

10-Day Weather Forecast

×

Almanac

Astronomy

Aug. 28, 2015 Rise Set
Actual Time
Civil Twilight
Nautical Twilight
Astronomical Twilight
Moon
Length of Visible Light
Length of Day
Tomorrow will be .
, % of the Moon is Illuminated

Today's Extremes

Country Highs Country Lows

Community

WunderPhotos

Upload Photos

1,850,462 photos uploaded!

WunderBlogs® & News

Nearby

Air Quality

  Air Quality AQ Index Pollutant
Not available.

Snow Depth

Station Depth Elevation

Earthquake Activity

City Distance Mag. Time & Date
Minimum magnitude displayed is 2.5.

Coastal Water Temperatures

Place Temperature

Stations

Nearby Weather Stations

Station Location Temp. Windchill Dew Point Humidity Wind Precip. Elev Updated Type